createdAt,value
2023-04-19T00:10:40.310Z,99148.66
2023-04-19T00:13:22.304Z,99144.19
2023-04-19T00:15:55.596Z,99138.97
2023-04-19T00:18:29.292Z,99129.28
2023-04-19T00:21:03.057Z,99135.47
2023-04-19T00:23:36.302Z,99133.66
2023-04-19T00:36:11.359Z,99120.22
2023-04-19T00:38:47.130Z,99125.53
2023-04-19T00:41:20.309Z,99123.84
2023-04-19T00:43:53.564Z,99124.69
2023-04-19T00:46:27.324Z,99118.53
2023-04-19T00:49:00.732Z,99122.97
2023-04-19T01:02:36.363Z,99106.38
2023-04-19T01:05:16.287Z,99117.09
2023-04-19T01:07:49.598Z,99106.47
2023-04-19T01:10:23.285Z,99107.41
2023-04-19T01:12:56.684Z,99103.88
2023-04-19T01:15:30.265Z,99090.66
2023-04-19T01:18:05.790Z,99099.56
2023-04-19T01:30:56.325Z,99094.41
2023-04-19T01:33:36.288Z,99086.44
2023-04-19T01:36:09.836Z,99076.75
2023-04-19T01:38:43.275Z,99078.59
2023-04-19T01:41:16.658Z,99080.41
2023-04-19T01:43:50.301Z,99073.28
2023-04-19T01:57:02.277Z,99082.22
2023-04-19T01:59:35.795Z,99080.50
2023-04-19T02:02:10.208Z,99070.81
2023-04-19T02:04:43.712Z,99066.41
2023-04-19T02:07:17.289Z,99062.84
2023-04-19T02:23:54.257Z,99055.00
2023-04-19T02:26:34.265Z,99058.63
2023-04-19T02:29:07.539Z,99049.78
2023-04-19T02:31:42.357Z,99055.09
2023-04-19T02:34:15.774Z,99050.66
2023-04-19T02:36:49.289Z,99049.78
2023-04-19T02:39:24.729Z,99042.69
2023-04-19T02:49:37.275Z,99035.56
2023-04-19T02:52:10.693Z,99033.84
2023-04-19T02:54:49.273Z,99033.94
2023-04-19T02:57:22.988Z,99024.25
2023-04-19T02:59:56.280Z,99020.78
2023-04-19T03:02:29.958Z,99019.09
2023-04-19T03:18:47.964Z,99010.34
2023-04-19T03:21:25.888Z,98998.00
2023-04-19T03:24:08.262Z,98996.22
2023-04-19T03:26:47.512Z,98992.69
2023-04-19T03:29:31.253Z,98992.69
2023-04-19T03:43:08.271Z,98989.22
2023-04-19T03:45:41.641Z,98994.69
2023-04-19T03:48:15.252Z,98985.91
2023-04-19T03:50:48.638Z,98982.34
2023-04-19T03:53:24.253Z,98985.94
2023-04-19T03:56:03.772Z,98982.44
2023-04-19T03:58:46.222Z,98978.06
2023-04-19T04:11:56.258Z,98974.84
2023-04-19T04:14:32.867Z,98988.25
2023-04-19T04:17:14.260Z,98982.13
2023-04-19T04:19:47.530Z,98978.63
2023-04-19T04:22:21.257Z,98976.84
2023-04-19T04:38:58.213Z,98993.69
2023-04-19T04:41:38.272Z,98985.78
2023-04-19T04:44:12.853Z,98979.63
2023-04-19T04:46:48.257Z,98979.63
2023-04-19T04:49:25.984Z,98986.78
2023-04-19T05:05:48.267Z,98973.19
2023-04-19T05:08:21.710Z,98980.22
2023-04-19T05:10:57.387Z,98983.78
2023-04-19T05:13:32.468Z,98993.66
2023-04-19T05:16:07.280Z,98990.22
2023-04-19T05:18:43.663Z,98993.75
2023-04-19T05:31:42.266Z,98991.44
2023-04-19T05:34:30.270Z,98973.75
2023-04-19T05:37:12.274Z,98978.19
2023-04-19T05:39:53.248Z,98977.31
2023-04-19T05:42:26.523Z,98979.19
2023-04-19T05:58:42.256Z,98966.59
2023-04-19T06:01:16.357Z,98971.72
2023-04-19T06:03:50.485Z,98967.31
2023-04-19T06:06:25.191Z,98976.19
2023-04-19T06:08:59.270Z,98968.44
2023-04-19T06:11:42.816Z,98975.59
2023-04-19T06:14:35.077Z,98959.84
2023-04-19T06:24:20.240Z,98945.50
2023-04-19T06:27:00.238Z,98950.69
2023-04-19T06:29:35.413Z,98942.56
2023-04-19T06:32:09.247Z,98943.28
2023-04-19T06:34:42.445Z,98930.66
2023-04-19T06:37:16.266Z,98932.31
2023-04-19T06:50:34.259Z,98938.34
2023-04-19T06:53:07.488Z,98934.75
2023-04-19T06:55:41.221Z,98927.44
2023-04-19T06:58:14.535Z,98925.56
2023-04-19T07:00:48.229Z,98920.09
2023-04-19T07:03:21.797Z,98911.22
2023-04-19T07:16:57.275Z,98903.72
2023-04-19T07:19:40.295Z,98900.13
2023-04-19T07:22:14.826Z,98900.13
2023-04-19T07:25:00.236Z,98897.56
2023-04-19T07:27:33.552Z,98895.75
2023-04-19T07:30:07.311Z,98899.28
2023-04-19T07:32:40.625Z,98900.13
2023-04-19T07:45:31.206Z,98891.25
2023-04-19T07:48:12.316Z,98892.13
2023-04-19T07:50:49.248Z,98891.25
2023-04-19T07:53:23.240Z,98900.94
2023-04-19T07:55:56.561Z,98894.81
2023-04-19T07:58:30.220Z,98898.41
2023-04-19T08:11:42.222Z,98909.50
2023-04-19T08:14:28.298Z,98912.28
2023-04-19T08:17:25.123Z,98913.38
2023-04-19T08:20:00.620Z,98911.66
2023-04-19T08:22:34.502Z,98902.94
2023-04-19T08:39:31.930Z,98910.66
2023-04-19T08:45:19.098Z,98902.44
2023-04-19T08:48:01.354Z,98903.22
2023-04-19T08:50:48.412Z,98903.22
2023-04-19T08:53:36.308Z,98897.91
2023-04-19T09:04:16.944Z,98892.44
2023-04-19T09:07:04.226Z,98894.81
2023-04-19T09:09:45.616Z,98892.16
2023-04-19T09:12:37.201Z,98889.56
2023-04-19T09:15:11.030Z,98886.03
2023-04-19T09:17:46.221Z,98892.16
2023-04-19T09:31:05.693Z,98880.81
2023-04-19T09:33:44.491Z,98871.94
2023-04-19T09:36:19.215Z,98879.81
2023-04-19T09:38:52.616Z,98879.75
2023-04-19T09:41:26.231Z,98869.81
2023-04-19T09:44:44.657Z,98869.81
2023-04-19T09:57:38.190Z,98871.63
2023-04-19T10:00:20.241Z,98862.75
2023-04-19T10:02:57.543Z,98857.28
2023-04-19T10:05:39.463Z,98859.69
2023-04-19T10:08:13.664Z,98854.09
2023-04-19T10:10:48.230Z,98851.31
2023-04-19T10:13:26.812Z,98857.38
2023-04-19T10:26:22.206Z,98828.31
2023-04-19T10:29:05.829Z,98832.22
2023-04-19T10:31:40.869Z,98825.59
2023-04-19T10:34:14.235Z,98825.81
2023-04-19T10:36:47.482Z,98829.06
2023-04-19T10:39:49.259Z,98824.53
2023-04-19T10:53:01.232Z,98797.94
2023-04-19T10:55:34.530Z,98809.00
2023-04-19T10:58:09.251Z,98804.34
2023-04-19T11:00:42.667Z,98817.16
2023-04-19T11:03:58.357Z,98807.00
2023-04-19T11:19:35.198Z,98790.72
2023-04-19T11:22:15.223Z,98787.84
2023-04-19T11:24:48.452Z,98790.63
2023-04-19T11:27:22.200Z,98788.91
2023-04-19T11:30:03.201Z,98784.19
2023-04-19T11:32:44.075Z,98779.81
2023-04-19T11:45:56.239Z,98778.13
2023-04-19T11:48:29.617Z,98770.16
2023-04-19T11:51:05.207Z,98780.13
2023-04-19T11:53:40.188Z,98778.50
2023-04-19T11:56:15.288Z,98776.78
2023-04-19T11:58:48.704Z,98768.97
2023-04-19T12:11:54.177Z,98760.22
2023-04-19T12:14:34.209Z,98756.00
2023-04-19T12:17:10.436Z,98756.28
2023-04-19T12:19:50.220Z,98758.88
2023-04-19T12:22:23.481Z,98758.88
2023-04-19T12:24:58.225Z,98759.97
2023-04-19T12:38:18.810Z,98757.56
2023-04-19T12:40:52.481Z,98751.56
2023-04-19T12:43:26.228Z,98755.16
2023-04-19T12:46:00.236Z,98749.09
2023-04-19T12:48:34.205Z,98750.97
2023-04-19T12:51:08.472Z,98751.91
2023-04-19T12:53:44.209Z,98753.97
2023-04-19T13:06:54.181Z,98755.19
2023-04-19T13:09:29.451Z,98764.31
2023-04-19T13:12:04.012Z,98755.72
2023-04-19T13:14:37.488Z,98765.69
2023-04-19T13:17:11.190Z,98767.66
2023-04-19T13:19:44.451Z,98777.59
2023-04-19T13:32:35.207Z,98780.47
2023-04-19T13:35:16.220Z,98785.97
2023-04-19T13:37:49.433Z,98784.41
2023-04-19T13:40:24.027Z,98779.25
2023-04-19T13:42:57.590Z,98774.09
2023-04-19T13:59:13.199Z,98757.81
2023-04-19T14:01:46.498Z,98761.41
2023-04-19T14:04:20.484Z,98754.38
2023-04-19T14:06:54.475Z,98754.28
2023-04-19T14:09:28.197Z,98750.78
2023-04-19T14:12:01.486Z,98748.38
2023-04-19T14:14:37.213Z,98752.28
2023-04-19T14:25:07.168Z,98749.41
2023-04-19T14:27:47.210Z,98747.94
2023-04-19T14:30:22.442Z,98741.91
2023-04-19T14:32:56.401Z,98746.53
2023-04-19T14:35:30.657Z,98745.91
2023-04-19T14:38:04.213Z,98747.78
2023-04-19T14:51:51.198Z,98738.13
2023-04-19T14:54:24.535Z,98735.53
2023-04-19T14:56:58.188Z,98732.81
2023-04-19T14:59:31.482Z,98735.38
2023-04-19T15:02:05.199Z,98727.34
2023-04-19T15:04:40.975Z,98727.34
2023-04-19T15:21:04.179Z,98729.19
2023-04-19T15:23:37.652Z,98725.78
2023-04-19T15:26:11.201Z,98731.09
2023-04-19T15:28:44.442Z,98732.94
2023-04-19T15:31:18.218Z,98727.81
2023-04-19T15:33:51.711Z,98740.44
2023-04-19T15:46:42.218Z,98720.13
2023-04-19T15:49:23.004Z,98719.59
2023-04-19T15:51:56.420Z,98720.63
2023-04-19T15:54:30.192Z,98713.59
2023-04-19T15:57:03.698Z,98715.31
2023-04-19T15:59:37.194Z,98720.75
2023-04-19T16:12:49.178Z,98726.72
2023-04-19T16:15:22.687Z,98718.91
2023-04-19T16:17:56.243Z,98711.88
2023-04-19T16:20:29.583Z,98711.03
2023-04-19T16:23:04.209Z,98717.16
2023-04-19T16:25:37.514Z,98714.53
2023-04-19T16:28:13.180Z,98710.00
2023-04-19T16:38:44.157Z,98704.84
2023-04-19T16:41:24.166Z,98698.84
2023-04-19T16:43:59.372Z,98703.47
2023-04-19T16:46:33.276Z,98708.81
2023-04-19T16:49:06.731Z,98708.91
2023-04-19T16:51:41.209Z,98714.19
2023-04-19T16:54:14.408Z,98710.75
2023-04-19T17:06:15.141Z,98706.72
2023-04-19T17:08:55.184Z,98699.75
2023-04-19T17:11:28.417Z,98699.81
2023-04-19T17:14:02.155Z,98701.63
2023-04-19T17:16:37.046Z,98703.50
2023-04-19T17:19:10.160Z,98694.69
2023-04-19T17:32:24.164Z,98707.38
2023-04-19T17:34:57.390Z,98702.78
2023-04-19T17:37:31.184Z,98706.22
2023-04-19T17:40:06.926Z,98702.66
2023-04-19T17:42:40.173Z,98704.38
2023-04-19T17:45:13.458Z,98699.91
2023-04-19T17:47:49.199Z,98707.03
2023-04-19T18:00:59.217Z,98704.50
2023-04-19T18:03:34.551Z,98711.66
2023-04-19T18:06:08.180Z,98713.53
2023-04-19T18:08:41.469Z,98717.97
2023-04-19T18:11:17.159Z,98720.69
2023-04-19T18:13:50.511Z,98719.13
2023-04-19T18:26:50.149Z,98720.28
2023-04-19T18:29:30.152Z,98721.16
2023-04-19T18:32:04.016Z,98723.84
2023-04-19T18:34:37.193Z,98718.56
2023-04-19T18:37:15.821Z,98719.50
2023-04-19T18:39:56.159Z,98721.28
2023-04-19T18:53:08.158Z,98717.84
2023-04-19T18:55:41.468Z,98723.09
2023-04-19T18:58:16.741Z,98722.22
2023-04-19T19:00:50.401Z,98720.44
2023-04-19T19:06:00.779Z,98732.91
2023-04-19T19:08:36.286Z,98730.31
2023-04-19T19:21:46.183Z,98728.59
2023-04-19T19:24:21.387Z,98731.25
2023-04-19T19:26:55.274Z,98728.59
2023-04-19T19:29:28.575Z,98726.88
2023-04-19T19:32:03.155Z,98724.31
2023-04-19T19:34:51.162Z,98726.16
2023-04-19T19:47:51.189Z,98737.25
2023-04-19T19:53:08.456Z,98733.81
2023-04-19T19:55:48.162Z,98730.34
2023-04-19T20:14:48.140Z,98726.72
2023-04-19T20:17:21.371Z,98726.84
2023-04-19T20:19:56.169Z,98732.13
2023-04-19T20:22:35.290Z,98722.47
2023-04-19T20:25:16.167Z,98719.09
2023-04-19T20:27:49.530Z,98725.34
2023-04-19T20:39:55.122Z,98726.63
2023-04-19T20:42:35.129Z,98727.56
2023-04-19T20:45:09.616Z,98718.75
2023-04-19T20:47:45.206Z,98725.84
2023-04-19T20:50:18.396Z,98731.13
2023-04-19T20:52:52.166Z,98734.84
2023-04-19T20:55:25.989Z,98741.06
2023-04-19T21:08:16.147Z,98739.25
2023-04-19T21:10:56.140Z,98753.50
2023-04-19T21:13:30.849Z,98746.47
2023-04-19T21:16:04.456Z,98746.47
2023-04-19T21:18:38.560Z,98742.09
2023-04-19T21:34:54.157Z,98737.78
2023-04-19T21:37:27.587Z,98742.19
2023-04-19T21:40:01.136Z,98741.34
2023-04-19T21:42:35.523Z,98746.63
2023-04-19T21:45:09.138Z,98732.69
2023-04-19T21:47:42.417Z,98736.97
2023-04-19T21:50:18.159Z,98742.25
2023-04-19T22:02:26.328Z,98731.94
2023-04-19T22:04:59.408Z,98734.66
2023-04-19T22:07:35.349Z,98737.34
2023-04-19T22:10:14.804Z,98735.63
2023-04-19T22:12:58.832Z,98739.22
2023-04-19T22:28:51.109Z,98735.25
2023-04-19T22:31:31.198Z,98734.47
2023-04-19T22:34:04.416Z,98732.84
2023-04-19T22:36:38.148Z,98739.03
2023-04-19T22:39:11.396Z,98740.97
2023-04-19T22:55:27.122Z,98747.44
2023-04-19T22:58:00.408Z,98749.22
2023-04-19T23:00:34.134Z,98738.69
2023-04-19T23:03:07.564Z,98735.28
2023-04-19T23:05:41.105Z,98737.03
2023-04-19T23:08:14.371Z,98741.47
2023-04-19T23:21:05.102Z,98733.56
2023-04-19T23:23:45.161Z,98738.84
2023-04-19T23:26:18.353Z,98737.97
2023-04-19T23:28:52.117Z,98737.13
2023-04-19T23:31:25.538Z,98735.38
2023-04-19T23:33:59.120Z,98738.97
2023-04-19T23:47:11.249Z,98726.81
2023-04-19T23:49:44.373Z,98730.38
2023-04-19T23:52:18.160Z,98729.44
2023-04-19T23:54:51.486Z,98733.88
2023-04-19T23:57:25.119Z,98723.34
2023-04-19T23:59:58.382Z,98716.34
